sensor_id;sensor_type;location;lat;lon;timestamp;P1;durP1;ratioP1;P2;durP2;ratioP2
3083;SDS011;1552;51.952;7.618;2024-03-06T00:01:46;51.97;;;25.63;;
3083;SDS011;1552;51.952;7.618;2024-03-06T00:04:13;50.27;;;25.47;;
3083;SDS011;1552;51.952;7.618;2024-03-06T00:06:40;51.87;;;27.80;;
3083;SDS011;1552;51.952;7.618;2024-03-06T00:09:06;48.93;;;26.77;;
3083;SDS011;1552;51.952;7.618;2024-03-06T00:11:33;52.57;;;26.60;;
3083;SDS011;1552;51.952;7.618;2024-03-06T00:14:00;53.83;;;28.27;;
3083;SDS011;1552;51.952;7.618;2024-03-06T00:16:27;57.67;;;26.93;;
3083;SDS011;1552;51.952;7.618;2024-03-06T00:18:54;50.07;;;26.43;;
3083;SDS011;1552;51.952;7.618;2024-03-06T00:21:21;61.17;;;27.17;;
3083;SDS011;1552;51.952;7.618;2024-03-06T00:23:47;53.10;;;27.57;;
3083;SDS011;1552;51.952;7.618;2024-03-06T00:26:13;50.87;;;27.40;;
3083;SDS011;1552;51.952;7.618;2024-03-06T00:28:39;55.90;;;27.97;;
3083;SDS011;1552;51.952;7.618;2024-03-06T00:31:06;50.17;;;26.33;;
3083;SDS011;1552;51.952;7.618;2024-03-06T00:33:32;52.30;;;26.67;;
3083;SDS011;1552;51.952;7.618;2024-03-06T00:36:00;53.97;;;27.13;;
3083;SDS011;1552;51.952;7.618;2024-03-06T00:38:26;58.63;;;28.00;;
3083;SDS011;1552;51.952;7.618;2024-03-06T00:40:52;49.33;;;26.13;;
3083;SDS011;1552;51.952;7.618;2024-03-06T00:43:19;56.37;;;27.20;;
3083;SDS011;1552;51.952;7.618;2024-03-06T00:45:45;51.67;;;26.00;;
3083;SDS011;1552;51.952;7.618;2024-03-06T00:48:11;48.97;;;25.27;;
3083;SDS011;1552;51.952;7.618;2024-03-06T00:50:37;52.07;;;26.33;;
3083;SDS011;1552;51.952;7.618;2024-03-06T00:53:05;56.23;;;27.20;;
3083;SDS011;1552;51.952;7.618;2024-03-06T00:55:31;57.07;;;28.03;;
3083;SDS011;1552;51.952;7.618;2024-03-06T00:57:58;51.47;;;26.33;;
3083;SDS011;1552;51.952;7.618;2024-03-06T01:00:24;55.40;;;25.23;;
3083;SDS011;1552;51.952;7.618;2024-03-06T01:02:50;53.93;;;26.30;;
3083;SDS011;1552;51.952;7.618;2024-03-06T01:05:16;52.00;;;28.20;;
3083;SDS011;1552;51.952;7.618;2024-03-06T01:07:43;49.97;;;24.67;;
3083;SDS011;1552;51.952;7.618;2024-03-06T01:10:10;50.10;;;24.57;;
3083;SDS011;1552;51.952;7.618;2024-03-06T01:12:36;51.03;;;27.20;;
3083;SDS011;1552;51.952;7.618;2024-03-06T01:15:03;50.23;;;27.47;;
3083;SDS011;1552;51.952;7.618;2024-03-06T01:17:29;50.03;;;26.50;;
3083;SDS011;1552;51.952;7.618;2024-03-06T01:19:56;54.00;;;28.00;;
3083;SDS011;1552;51.952;7.618;2024-03-06T01:22:24;52.83;;;26.27;;
3083;SDS011;1552;51.952;7.618;2024-03-06T01:24:50;52.10;;;27.73;;
3083;SDS011;1552;51.952;7.618;2024-03-06T01:27:18;51.17;;;26.27;;
3083;SDS011;1552;51.952;7.618;2024-03-06T01:29:44;53.47;;;27.73;;
3083;SDS011;1552;51.952;7.618;2024-03-06T01:32:11;52.37;;;28.47;;
3083;SDS011;1552;51.952;7.618;2024-03-06T01:34:38;54.97;;;26.77;;
3083;SDS011;1552;51.952;7.618;2024-03-06T01:37:04;57.50;;;26.53;;
3083;SDS011;1552;51.952;7.618;2024-03-06T01:39:30;46.37;;;25.47;;
3083;SDS011;1552;51.952;7.618;2024-03-06T01:41:58;51.30;;;27.10;;
3083;SDS011;1552;51.952;7.618;2024-03-06T01:44:26;55.03;;;27.47;;
3083;SDS011;1552;51.952;7.618;2024-03-06T01:46:52;50.70;;;27.37;;
3083;SDS011;1552;51.952;7.618;2024-03-06T01:49:18;55.50;;;27.50;;
3083;SDS011;1552;51.952;7.618;2024-03-06T01:51:48;52.30;;;28.30;;
3083;SDS011;1552;51.952;7.618;2024-03-06T01:54:14;59.27;;;28.67;;
3083;SDS011;1552;51.952;7.618;2024-03-06T01:56:43;52.30;;;26.90;;
3083;SDS011;1552;51.952;7.618;2024-03-06T01:59:10;63.53;;;28.30;;
3083;SDS011;1552;51.952;7.618;2024-03-06T02:01:38;60.17;;;29.67;;
3083;SDS011;1552;51.952;7.618;2024-03-06T02:04:06;55.13;;;27.53;;
3083;SDS011;1552;51.952;7.618;2024-03-06T02:06:33;58.87;;;27.90;;
3083;SDS011;1552;51.952;7.618;2024-03-06T02:08:59;59.33;;;27.23;;
3083;SDS011;1552;51.952;7.618;2024-03-06T02:11:26;57.37;;;28.23;;
3083;SDS011;1552;51.952;7.618;2024-03-06T02:13:53;54.50;;;26.23;;
3083;SDS011;1552;51.952;7.618;2024-03-06T02:16:19;61.70;;;29.03;;
3083;SDS011;1552;51.952;7.618;2024-03-06T02:18:53;46.77;;;25.90;;
3083;SDS011;1552;51.952;7.618;2024-03-06T02:21:21;52.33;;;28.27;;
3083;SDS011;1552;51.952;7.618;2024-03-06T02:23:48;54.83;;;26.63;;
3083;SDS011;1552;51.952;7.618;2024-03-06T02:26:16;55.73;;;27.17;;
3083;SDS011;1552;51.952;7.618;2024-03-06T02:28:46;60.20;;;27.53;;
3083;SDS011;1552;51.952;7.618;2024-03-06T02:31:12;54.03;;;27.93;;
3083;SDS011;1552;51.952;7.618;2024-03-06T02:33:38;61.57;;;28.37;;
3083;SDS011;1552;51.952;7.618;2024-03-06T02:36:05;54.90;;;26.03;;
3083;SDS011;1552;51.952;7.618;2024-03-06T02:38:33;54.33;;;26.70;;
3083;SDS011;1552;51.952;7.618;2024-03-06T02:41:00;62.07;;;28.53;;
3083;SDS011;1552;51.952;7.618;2024-03-06T02:43:26;59.33;;;26.30;;
3083;SDS011;1552;51.952;7.618;2024-03-06T02:45:52;55.30;;;26.47;;
3083;SDS011;1552;51.952;7.618;2024-03-06T02:48:19;49.53;;;28.30;;
3083;SDS011;1552;51.952;7.618;2024-03-06T02:50:45;49.60;;;24.63;;
3083;SDS011;1552;51.952;7.618;2024-03-06T02:53:11;55.03;;;26.63;;
3083;SDS011;1552;51.952;7.618;2024-03-06T02:55:39;50.67;;;25.40;;
3083;SDS011;1552;51.952;7.618;2024-03-06T02:58:05;58.00;;;28.27;;
3083;SDS011;1552;51.952;7.618;2024-03-06T03:00:32;55.23;;;28.97;;
3083;SDS011;1552;51.952;7.618;2024-03-06T03:02:58;49.27;;;26.17;;
3083;SDS011;1552;51.952;7.618;2024-03-06T03:05:24;50.80;;;24.97;;
3083;SDS011;1552;51.952;7.618;2024-03-06T03:07:51;54.23;;;28.43;;
3083;SDS011;1552;51.952;7.618;2024-03-06T03:10:17;62.70;;;28.17;;
3083;SDS011;1552;51.952;7.618;2024-03-06T03:12:45;54.33;;;28.57;;
3083;SDS011;1552;51.952;7.618;2024-03-06T03:15:12;51.37;;;26.33;;
3083;SDS011;1552;51.952;7.618;2024-03-06T03:17:38;47.47;;;25.47;;
3083;SDS011;1552;51.952;7.618;2024-03-06T03:20:05;49.37;;;26.83;;
3083;SDS011;1552;51.952;7.618;2024-03-06T03:22:35;56.10;;;28.23;;
3083;SDS011;1552;51.952;7.618;2024-03-06T03:25:01;58.67;;;27.97;;
3083;SDS011;1552;51.952;7.618;2024-03-06T03:27:28;52.20;;;29.60;;
3083;SDS011;1552;51.952;7.618;2024-03-06T03:29:56;53.37;;;27.07;;
3083;SDS011;1552;51.952;7.618;2024-03-06T03:32:22;52.97;;;26.87;;
3083;SDS011;1552;51.952;7.618;2024-03-06T03:34:49;55.50;;;28.50;;
3083;SDS011;1552;51.952;7.618;2024-03-06T03:37:15;60.60;;;26.77;;
3083;SDS011;1552;51.952;7.618;2024-03-06T03:39:43;55.83;;;26.80;;
3083;SDS011;1552;51.952;7.618;2024-03-06T03:42:09;60.37;;;28.00;;
3083;SDS011;1552;51.952;7.618;2024-03-06T03:44:36;56.67;;;27.90;;
3083;SDS011;1552;51.952;7.618;2024-03-06T03:47:04;60.83;;;27.27;;
3083;SDS011;1552;51.952;7.618;2024-03-06T03:49:30;53.60;;;27.73;;
3083;SDS011;1552;51.952;7.618;2024-03-06T03:51:56;61.37;;;30.13;;
3083;SDS011;1552;51.952;7.618;2024-03-06T03:54:22;51.70;;;28.67;;
3083;SDS011;1552;51.952;7.618;2024-03-06T03:56:49;53.27;;;26.63;;
3083;SDS011;1552;51.952;7.618;2024-03-06T03:59:16;59.97;;;29.97;;
3083;SDS011;1552;51.952;7.618;2024-03-06T04:01:44;55.27;;;27.10;;
3083;SDS011;1552;51.952;7.618;2024-03-06T04:04:12;49.30;;;26.43;;
3083;SDS011;1552;51.952;7.618;2024-03-06T04:06:38;55.13;;;27.83;;
3083;SDS011;1552;51.952;7.618;2024-03-06T04:09:04;57.80;;;28.67;;
3083;SDS011;1552;51.952;7.618;2024-03-06T04:11:31;49.50;;;26.63;;
3083;SDS011;1552;51.952;7.618;2024-03-06T04:13:59;51.47;;;26.63;;
3083;SDS011;1552;51.952;7.618;2024-03-06T04:16:25;55.27;;;29.27;;
3083;SDS011;1552;51.952;7.618;2024-03-06T04:18:51;63.40;;;28.63;;
3083;SDS011;1552;51.952;7.618;2024-03-06T04:21:19;59.87;;;28.90;;
3083;SDS011;1552;51.952;7.618;2024-03-06T04:23:45;55.37;;;26.63;;
3083;SDS011;1552;51.952;7.618;2024-03-06T04:26:11;56.63;;;28.33;;
3083;SDS011;1552;51.952;7.618;2024-03-06T04:28:38;58.93;;;27.00;;
3083;SDS011;1552;51.952;7.618;2024-03-06T04:31:04;65.00;;;31.07;;
3083;SDS011;1552;51.952;7.618;2024-03-06T04:33:30;53.83;;;27.30;;
3083;SDS011;1552;51.952;7.618;2024-03-06T04:35:57;56.10;;;27.30;;
3083;SDS011;1552;51.952;7.618;2024-03-06T04:38:25;60.93;;;28.60;;
3083;SDS011;1552;51.952;7.618;2024-03-06T04:40:51;57.20;;;28.13;;
3083;SDS011;1552;51.952;7.618;2024-03-06T04:43:19;59.53;;;26.73;;
3083;SDS011;1552;51.952;7.618;2024-03-06T04:45:48;54.17;;;26.07;;
3083;SDS011;1552;51.952;7.618;2024-03-06T04:48:14;51.93;;;26.57;;
3083;SDS011;1552;51.952;7.618;2024-03-06T04:50:41;54.70;;;27.47;;
3083;SDS011;1552;51.952;7.618;2024-03-06T04:53:07;54.67;;;26.60;;
3083;SDS011;1552;51.952;7.618;2024-03-06T04:55:37;56.90;;;27.37;;
3083;SDS011;1552;51.952;7.618;2024-03-06T04:58:03;53.57;;;26.20;;
3083;SDS011;1552;51.952;7.618;2024-03-06T05:00:30;56.40;;;27.13;;
3083;SDS011;1552;51.952;7.618;2024-03-06T05:02:56;60.90;;;27.10;;
3083;SDS011;1552;51.952;7.618;2024-03-06T05:05:23;68.13;;;29.40;;
3083;SDS011;1552;51.952;7.618;2024-03-06T05:07:49;53.40;;;26.97;;
3083;SDS011;1552;51.952;7.618;2024-03-06T05:10:16;60.27;;;26.63;;
3083;SDS011;1552;51.952;7.618;2024-03-06T05:12:44;50.77;;;27.60;;
3083;SDS011;1552;51.952;7.618;2024-03-06T05:15:10;60.27;;;26.77;;
3083;SDS011;1552;51.952;7.618;2024-03-06T05:17:36;59.77;;;28.53;;
3083;SDS011;1552;51.952;7.618;2024-03-06T05:20:03;59.97;;;28.13;;
3083;SDS011;1552;51.952;7.618;2024-03-06T05:22:29;57.43;;;29.07;;
3083;SDS011;1552;51.952;7.618;2024-03-06T05:24:56;67.53;;;29.47;;
3083;SDS011;1552;51.952;7.618;2024-03-06T05:27:23;64.10;;;29.33;;
3083;SDS011;1552;51.952;7.618;2024-03-06T05:29:53;61.97;;;30.23;;
3083;SDS011;1552;51.952;7.618;2024-03-06T05:32:19;49.03;;;26.27;;
3083;SDS011;1552;51.952;7.618;2024-03-06T05:34:46;61.73;;;28.67;;
3083;SDS011;1552;51.952;7.618;2024-03-06T05:37:12;53.23;;;28.03;;
3083;SDS011;1552;51.952;7.618;2024-03-06T05:39:38;66.83;;;31.83;;
3083;SDS011;1552;51.952;7.618;2024-03-06T05:42:05;64.03;;;31.40;;
3083;SDS011;1552;51.952;7.618;2024-03-06T05:44:32;77.63;;;32.50;;
3083;SDS011;1552;51.952;7.618;2024-03-06T05:47:00;76.43;;;33.07;;
3083;SDS011;1552;51.952;7.618;2024-03-06T05:49:27;76.70;;;32.90;;
3083;SDS011;1552;51.952;7.618;2024-03-06T05:51:53;62.97;;;31.73;;
3083;SDS011;1552;51.952;7.618;2024-03-06T05:54:20;73.23;;;33.40;;
3083;SDS011;1552;51.952;7.618;2024-03-06T05:56:47;71.00;;;32.13;;
3083;SDS011;1552;51.952;7.618;2024-03-06T05:59:13;63.43;;;32.13;;
3083;SDS011;1552;51.952;7.618;2024-03-06T06:01:40;62.73;;;30.43;;
3083;SDS011;1552;51.952;7.618;2024-03-06T06:04:08;63.57;;;30.10;;
3083;SDS011;1552;51.952;7.618;2024-03-06T06:06:35;59.27;;;31.50;;
3083;SDS011;1552;51.952;7.618;2024-03-06T06:09:01;65.93;;;31.83;;
3083;SDS011;1552;51.952;7.618;2024-03-06T06:11:30;68.60;;;31.23;;
3083;SDS011;1552;51.952;7.618;2024-03-06T06:13:56;74.40;;;32.57;;
3083;SDS011;1552;51.952;7.618;2024-03-06T06:16:22;72.57;;;34.10;;
3083;SDS011;1552;51.952;7.618;2024-03-06T06:18:48;75.10;;;32.30;;
3083;SDS011;1552;51.952;7.618;2024-03-06T06:21:16;64.33;;;30.17;;
3083;SDS011;1552;51.952;7.618;2024-03-06T06:23:49;67.87;;;31.87;;
3083;SDS011;1552;51.952;7.618;2024-03-06T06:26:15;66.10;;;29.10;;
3083;SDS011;1552;51.952;7.618;2024-03-06T06:28:42;53.97;;;28.10;;
3083;SDS011;1552;51.952;7.618;2024-03-06T06:31:09;62.83;;;27.10;;
3083;SDS011;1552;51.952;7.618;2024-03-06T06:33:35;56.80;;;28.87;;
3083;SDS011;1552;51.952;7.618;2024-03-06T06:36:01;68.07;;;29.47;;
3083;SDS011;1552;51.952;7.618;2024-03-06T06:38:29;66.73;;;30.90;;
3083;SDS011;1552;51.952;7.618;2024-03-06T06:40:56;60.80;;;28.60;;
3083;SDS011;1552;51.952;7.618;2024-03-06T06:43:22;73.33;;;32.50;;
3083;SDS011;1552;51.952;7.618;2024-03-06T06:45:49;66.57;;;30.50;;
3083;SDS011;1552;51.952;7.618;2024-03-06T06:48:15;61.67;;;29.67;;
3083;SDS011;1552;51.952;7.618;2024-03-06T06:50:42;67.40;;;30.20;;
3083;SDS011;1552;51.952;7.618;2024-03-06T06:53:08;68.83;;;30.40;;
3083;SDS011;1552;51.952;7.618;2024-03-06T06:55:36;60.20;;;29.63;;
3083;SDS011;1552;51.952;7.618;2024-03-06T06:58:03;63.57;;;29.17;;
3083;SDS011;1552;51.952;7.618;2024-03-06T07:00:29;72.23;;;32.07;;
3083;SDS011;1552;51.952;7.618;2024-03-06T07:02:56;67.93;;;31.00;;
3083;SDS011;1552;51.952;7.618;2024-03-06T07:05:23;64.60;;;31.07;;
3083;SDS011;1552;51.952;7.618;2024-03-06T07:07:50;76.73;;;33.20;;
3083;SDS011;1552;51.952;7.618;2024-03-06T07:10:16;88.10;;;36.47;;
3083;SDS011;1552;51.952;7.618;2024-03-06T07:12:44;88.63;;;36.50;;
3083;SDS011;1552;51.952;7.618;2024-03-06T07:15:10;84.47;;;35.80;;
3083;SDS011;1552;51.952;7.618;2024-03-06T07:17:36;86.23;;;35.37;;
3083;SDS011;1552;51.952;7.618;2024-03-06T07:20:03;82.87;;;34.03;;
3083;SDS011;1552;51.952;7.618;2024-03-06T07:22:33;61.97;;;28.27;;
3083;SDS011;1552;51.952;7.618;2024-03-06T07:24:59;56.43;;;28.17;;
3083;SDS011;1552;51.952;7.618;2024-03-06T07:27:26;58.60;;;27.83;;
3083;SDS011;1552;51.952;7.618;2024-03-06T07:29:56;57.83;;;27.77;;
3083;SDS011;1552;51.952;7.618;2024-03-06T07:32:22;59.53;;;27.43;;
3083;SDS011;1552;51.952;7.618;2024-03-06T07:34:49;62.03;;;27.43;;
3083;SDS011;1552;51.952;7.618;2024-03-06T07:37:15;65.67;;;27.13;;
3083;SDS011;1552;51.952;7.618;2024-03-06T07:39:41;58.20;;;29.80;;
3083;SDS011;1552;51.952;7.618;2024-03-06T07:42:08;83.20;;;35.97;;
3083;SDS011;1552;51.952;7.618;2024-03-06T07:44:35;82.43;;;34.23;;
3083;SDS011;1552;51.952;7.618;2024-03-06T07:47:03;87.53;;;37.40;;
3083;SDS011;1552;51.952;7.618;2024-03-06T07:49:29;92.30;;;36.37;;
3083;SDS011;1552;51.952;7.618;2024-03-06T07:51:56;78.03;;;31.73;;
3083;SDS011;1552;51.952;7.618;2024-03-06T07:54:22;72.17;;;30.40;;
3083;SDS011;1552;51.952;7.618;2024-03-06T07:56:49;68.47;;;29.40;;
3083;SDS011;1552;51.952;7.618;2024-03-06T07:59:15;60.00;;;26.57;;
3083;SDS011;1552;51.952;7.618;2024-03-06T08:01:43;63.00;;;26.37;;
3083;SDS011;1552;51.952;7.618;2024-03-06T08:04:10;68.83;;;29.30;;
3083;SDS011;1552;51.952;7.618;2024-03-06T08:06:36;62.27;;;26.07;;
3083;SDS011;1552;51.952;7.618;2024-03-06T08:09:03;52.60;;;25.70;;
3083;SDS011;1552;51.952;7.618;2024-03-06T08:11:29;63.23;;;28.20;;
3083;SDS011;1552;51.952;7.618;2024-03-06T08:13:57;56.80;;;27.20;;
3083;SDS011;1552;51.952;7.618;2024-03-06T08:16:24;52.37;;;24.53;;
3083;SDS011;1552;51.952;7.618;2024-03-06T08:18:50;54.70;;;27.10;;
3083;SDS011;1552;51.952;7.618;2024-03-06T08:21:17;56.47;;;28.00;;
3083;SDS011;1552;51.952;7.618;2024-03-06T08:23:45;66.40;;;30.13;;
3083;SDS011;1552;51.952;7.618;2024-03-06T08:26:12;65.87;;;28.03;;
3083;SDS011;1552;51.952;7.618;2024-03-06T08:28:38;52.47;;;26.80;;
3083;SDS011;1552;51.952;7.618;2024-03-06T08:31:05;53.20;;;27.07;;
3083;SDS011;1552;51.952;7.618;2024-03-06T08:33:31;65.17;;;27.83;;
3083;SDS011;1552;51.952;7.618;2024-03-06T08:35:57;55.07;;;27.17;;
3083;SDS011;1552;51.952;7.618;2024-03-06T08:38:25;59.10;;;26.93;;
3083;SDS011;1552;51.952;7.618;2024-03-06T08:40:51;55.53;;;27.60;;
3083;SDS011;1552;51.952;7.618;2024-03-06T08:43:17;52.20;;;27.00;;
3083;SDS011;1552;51.952;7.618;2024-03-06T08:45:44;58.83;;;27.63;;
3083;SDS011;1552;51.952;7.618;2024-03-06T08:48:11;56.20;;;27.27;;
3083;SDS011;1552;51.952;7.618;2024-03-06T08:50:37;55.37;;;26.40;;
3083;SDS011;1552;51.952;7.618;2024-03-06T08:53:04;52.37;;;25.57;;
3083;SDS011;1552;51.952;7.618;2024-03-06T08:55:31;43.97;;;23.37;;
3083;SDS011;1552;51.952;7.618;2024-03-06T08:57:57;44.53;;;22.43;;
3083;SDS011;1552;51.952;7.618;2024-03-06T09:00:26;48.77;;;23.13;;
3083;SDS011;1552;51.952;7.618;2024-03-06T09:02:52;43.43;;;21.63;;
3083;SDS011;1552;51.952;7.618;2024-03-06T09:05:19;36.30;;;19.93;;
3083;SDS011;1552;51.952;7.618;2024-03-06T09:07:47;41.13;;;21.90;;
3083;SDS011;1552;51.952;7.618;2024-03-06T09:10:13;48.40;;;23.80;;
3083;SDS011;1552;51.952;7.618;2024-03-06T09:12:41;42.27;;;21.57;;
3083;SDS011;1552;51.952;7.618;2024-03-06T09:15:07;50.17;;;21.73;;
3083;SDS011;1552;51.952;7.618;2024-03-06T09:17:34;47.90;;;23.17;;
3083;SDS011;1552;51.952;7.618;2024-03-06T09:20:00;46.20;;;21.50;;
3083;SDS011;1552;51.952;7.618;2024-03-06T09:22:34;44.43;;;22.17;;
3083;SDS011;1552;51.952;7.618;2024-03-06T09:25:01;39.33;;;19.93;;
3083;SDS011;1552;51.952;7.618;2024-03-06T09:27:27;38.83;;;19.53;;
3083;SDS011;1552;51.952;7.618;2024-03-06T09:29:55;46.00;;;21.37;;
3083;SDS011;1552;51.952;7.618;2024-03-06T09:32:21;35.83;;;19.67;;
3083;SDS011;1552;51.952;7.618;2024-03-06T09:34:48;39.67;;;19.57;;
3083;SDS011;1552;51.952;7.618;2024-03-06T09:37:14;46.77;;;21.77;;
3083;SDS011;1552;51.952;7.618;2024-03-06T09:39:41;43.00;;;21.30;;
3083;SDS011;1552;51.952;7.618;2024-03-06T09:42:07;45.47;;;22.27;;
3083;SDS011;1552;51.952;7.618;2024-03-06T09:44:33;42.77;;;21.20;;
3083;SDS011;1552;51.952;7.618;2024-03-06T09:47:01;37.93;;;21.10;;
3083;SDS011;1552;51.952;7.618;2024-03-06T09:49:28;47.67;;;21.33;;
3083;SDS011;1552;51.952;7.618;2024-03-06T09:51:55;44.60;;;22.23;;
3083;SDS011;1552;51.952;7.618;2024-03-06T09:54:23;41.23;;;20.93;;
3083;SDS011;1552;51.952;7.618;2024-03-06T09:56:51;34.27;;;19.47;;
3083;SDS011;1552;51.952;7.618;2024-03-06T09:59:17;41.93;;;20.90;;
3083;SDS011;1552;51.952;7.618;2024-03-06T10:01:47;33.03;;;19.00;;
3083;SDS011;1552;51.952;7.618;2024-03-06T10:04:20;43.40;;;20.60;;
3083;SDS011;1552;51.952;7.618;2024-03-06T10:06:46;38.87;;;19.10;;
3083;SDS011;1552;51.952;7.618;2024-03-06T10:09:15;41.73;;;19.67;;
3083;SDS011;1552;51.952;7.618;2024-03-06T10:11:42;34.67;;;18.67;;
3083;SDS011;1552;51.952;7.618;2024-03-06T10:14:08;35.87;;;19.27;;
3083;SDS011;1552;51.952;7.618;2024-03-06T10:16:35;32.03;;;17.97;;
3083;SDS011;1552;51.952;7.618;2024-03-06T10:19:14;38.23;;;18.70;;
3083;SDS011;1552;51.952;7.618;2024-03-06T10:21:43;36.47;;;18.10;;
3083;SDS011;1552;51.952;7.618;2024-03-06T10:24:10;35.40;;;17.70;;
3083;SDS011;1552;51.952;7.618;2024-03-06T10:26:37;33.63;;;18.80;;
3083;SDS011;1552;51.952;7.618;2024-03-06T10:29:04;40.40;;;18.63;;
3083;SDS011;1552;51.952;7.618;2024-03-06T10:31:30;30.57;;;15.93;;
3083;SDS011;1552;51.952;7.618;2024-03-06T10:33:56;35.40;;;18.07;;
3083;SDS011;1552;51.952;7.618;2024-03-06T10:36:25;27.87;;;16.57;;
3083;SDS011;1552;51.952;7.618;2024-03-06T10:38:53;30.20;;;16.93;;
3083;SDS011;1552;51.952;7.618;2024-03-06T10:41:20;28.87;;;15.73;;
3083;SDS011;1552;51.952;7.618;2024-03-06T10:43:50;33.43;;;17.27;;
3083;SDS011;1552;51.952;7.618;2024-03-06T10:46:19;33.37;;;15.93;;
3083;SDS011;1552;51.952;7.618;2024-03-06T10:48:46;33.73;;;16.90;;
3083;SDS011;1552;51.952;7.618;2024-03-06T10:51:12;38.07;;;18.10;;
3083;SDS011;1552;51.952;7.618;2024-03-06T10:53:39;35.83;;;16.77;;
3083;SDS011;1552;51.952;7.618;2024-03-06T10:56:09;28.37;;;15.47;;
3083;SDS011;1552;51.952;7.618;2024-03-06T10:58:36;30.80;;;16.73;;
3083;SDS011;1552;51.952;7.618;2024-03-06T11:01:03;33.13;;;17.43;;
3083;SDS011;1552;51.952;7.618;2024-03-06T11:03:30;35.23;;;16.97;;
3083;SDS011;1552;51.952;7.618;2024-03-06T11:05:56;37.23;;;18.40;;
3083;SDS011;1552;51.952;7.618;2024-03-06T11:08:23;31.20;;;15.80;;
3083;SDS011;1552;51.952;7.618;2024-03-06T11:10:50;34.50;;;17.37;;
3083;SDS011;1552;51.952;7.618;2024-03-06T11:13:25;31.70;;;16.33;;
3083;SDS011;1552;51.952;7.618;2024-03-06T11:15:53;35.77;;;16.87;;
3083;SDS011;1552;51.952;7.618;2024-03-06T11:18:41;34.87;;;17.27;;
3083;SDS011;1552;51.952;7.618;2024-03-06T11:26:41;34.07;;;16.67;;
3083;SDS011;1552;51.952;7.618;2024-03-06T11:29:09;35.80;;;17.73;;
3083;SDS011;1552;51.952;7.618;2024-03-06T11:31:35;36.87;;;17.03;;
3083;SDS011;1552;51.952;7.618;2024-03-06T11:34:02;35.63;;;17.33;;
3083;SDS011;1552;51.952;7.618;2024-03-06T11:36:30;35.40;;;18.67;;
3083;SDS011;1552;51.952;7.618;2024-03-06T11:38:57;30.70;;;15.73;;
3083;SDS011;1552;51.952;7.618;2024-03-06T11:41:25;33.93;;;16.93;;
3083;SDS011;1552;51.952;7.618;2024-03-06T11:43:51;34.87;;;16.67;;
3083;SDS011;1552;51.952;7.618;2024-03-06T11:46:20;32.87;;;17.73;;
3083;SDS011;1552;51.952;7.618;2024-03-06T11:48:53;33.30;;;17.20;;
3083;SDS011;1552;51.952;7.618;2024-03-06T11:51:20;32.33;;;15.70;;
3083;SDS011;1552;51.952;7.618;2024-03-06T11:53:49;33.40;;;16.43;;
3083;SDS011;1552;51.952;7.618;2024-03-06T11:56:16;34.87;;;16.47;;
3083;SDS011;1552;51.952;7.618;2024-03-06T11:58:42;35.03;;;18.07;;
3083;SDS011;1552;51.952;7.618;2024-03-06T12:01:09;29.90;;;15.97;;
3083;SDS011;1552;51.952;7.618;2024-03-06T12:03:36;28.70;;;15.43;;
3083;SDS011;1552;51.952;7.618;2024-03-06T12:06:03;33.30;;;16.60;;
3083;SDS011;1552;51.952;7.618;2024-03-06T12:08:29;36.87;;;16.83;;
3083;SDS011;1552;51.952;7.618;2024-03-06T12:10:55;31.50;;;15.80;;
3083;SDS011;1552;51.952;7.618;2024-03-06T12:13:23;27.60;;;16.37;;
3083;SDS011;1552;51.952;7.618;2024-03-06T12:15:49;30.50;;;16.37;;
3083;SDS011;1552;51.952;7.618;2024-03-06T12:18:16;34.03;;;16.47;;
3083;SDS011;1552;51.952;7.618;2024-03-06T12:20:44;30.97;;;16.07;;
3083;SDS011;1552;51.952;7.618;2024-03-06T12:23:18;32.07;;;16.10;;
3083;SDS011;1552;51.952;7.618;2024-03-06T12:25:45;29.63;;;15.07;;
3083;SDS011;1552;51.952;7.618;2024-03-06T12:28:11;27.03;;;14.73;;
3083;SDS011;1552;51.952;7.618;2024-03-06T12:30:39;29.60;;;15.73;;
3083;SDS011;1552;51.952;7.618;2024-03-06T12:33:07;35.97;;;18.10;;
3083;SDS011;1552;51.952;7.618;2024-03-06T12:35:34;33.63;;;17.17;;
3083;SDS011;1552;51.952;7.618;2024-03-06T12:38:02;29.77;;;16.40;;
3083;SDS011;1552;51.952;7.618;2024-03-06T12:40:37;32.67;;;17.10;;
3083;SDS011;1552;51.952;7.618;2024-03-06T12:43:04;35.00;;;16.47;;
3083;SDS011;1552;51.952;7.618;2024-03-06T12:45:30;34.67;;;16.00;;
3083;SDS011;1552;51.952;7.618;2024-03-06T12:47:56;29.53;;;15.57;;
3083;SDS011;1552;51.952;7.618;2024-03-06T12:50:23;30.17;;;15.27;;
3083;SDS011;1552;51.952;7.618;2024-03-06T12:52:49;33.10;;;17.30;;
3083;SDS011;1552;51.952;7.618;2024-03-06T12:55:18;27.53;;;15.10;;
3083;SDS011;1552;51.952;7.618;2024-03-06T12:57:45;34.53;;;15.67;;
3083;SDS011;1552;51.952;7.618;2024-03-06T13:00:11;34.00;;;15.07;;
3083;SDS011;1552;51.952;7.618;2024-03-06T13:02:40;29.50;;;16.40;;
3083;SDS011;1552;51.952;7.618;2024-03-06T13:05:07;33.53;;;15.97;;
3083;SDS011;1552;51.952;7.618;2024-03-06T13:07:34;29.10;;;14.43;;
3083;SDS011;1552;51.952;7.618;2024-03-06T13:10:01;31.57;;;15.57;;
3083;SDS011;1552;51.952;7.618;2024-03-06T13:12:29;32.27;;;15.60;;
3083;SDS011;1552;51.952;7.618;2024-03-06T13:14:56;32.03;;;15.80;;
3083;SDS011;1552;51.952;7.618;2024-03-06T13:17:22;28.33;;;15.67;;
3083;SDS011;1552;51.952;7.618;2024-03-06T13:19:49;26.90;;;14.67;;
3083;SDS011;1552;51.952;7.618;2024-03-06T13:22:15;34.20;;;15.13;;
3083;SDS011;1552;51.952;7.618;2024-03-06T13:24:42;23.43;;;14.23;;
3083;SDS011;1552;51.952;7.618;2024-03-06T13:27:08;24.93;;;14.13;;
3083;SDS011;1552;51.952;7.618;2024-03-06T13:29:36;25.20;;;15.33;;
3083;SDS011;1552;51.952;7.618;2024-03-06T13:32:02;26.93;;;14.83;;
3083;SDS011;1552;51.952;7.618;2024-03-06T13:34:28;25.93;;;13.37;;
3083;SDS011;1552;51.952;7.618;2024-03-06T13:36:56;25.70;;;14.73;;
3083;SDS011;1552;51.952;7.618;2024-03-06T13:39:22;29.03;;;15.10;;
3083;SDS011;1552;51.952;7.618;2024-03-06T13:41:48;28.57;;;15.90;;
3083;SDS011;1552;51.952;7.618;2024-03-06T13:44:15;25.23;;;13.63;;
3083;SDS011;1552;51.952;7.618;2024-03-06T13:46:42;30.83;;;14.47;;
3083;SDS011;1552;51.952;7.618;2024-03-06T13:49:11;26.70;;;14.80;;
3083;SDS011;1552;51.952;7.618;2024-03-06T13:51:48;28.77;;;15.37;;
3083;SDS011;1552;51.952;7.618;2024-03-06T13:54:14;26.63;;;13.73;;
3083;SDS011;1552;51.952;7.618;2024-03-06T13:56:41;28.37;;;14.50;;
3083;SDS011;1552;51.952;7.618;2024-03-06T13:59:07;25.43;;;13.77;;
3083;SDS011;1552;51.952;7.618;2024-03-06T14:01:33;24.27;;;13.47;;
3083;SDS011;1552;51.952;7.618;2024-03-06T14:04:01;27.10;;;14.67;;
3083;SDS011;1552;51.952;7.618;2024-03-06T14:06:27;26.47;;;14.07;;
3083;SDS011;1552;51.952;7.618;2024-03-06T14:08:53;30.23;;;13.57;;
3083;SDS011;1552;51.952;7.618;2024-03-06T14:11:20;24.47;;;14.43;;
3083;SDS011;1552;51.952;7.618;2024-03-06T14:13:46;27.33;;;14.87;;
3083;SDS011;1552;51.952;7.618;2024-03-06T14:16:13;25.57;;;14.00;;
3083;SDS011;1552;51.952;7.618;2024-03-06T14:18:39;25.50;;;13.73;;
3083;SDS011;1552;51.952;7.618;2024-03-06T14:21:06;31.90;;;15.23;;
3083;SDS011;1552;51.952;7.618;2024-03-06T14:23:33;24.83;;;13.23;;
3083;SDS011;1552;51.952;7.618;2024-03-06T14:26:00;25.33;;;13.03;;
3083;SDS011;1552;51.952;7.618;2024-03-06T14:28:27;21.27;;;12.43;;
3083;SDS011;1552;51.952;7.618;2024-03-06T14:30:53;30.00;;;13.80;;
3083;SDS011;1552;51.952;7.618;2024-03-06T14:33:20;25.17;;;13.90;;
3083;SDS011;1552;51.952;7.618;2024-03-06T14:35:46;21.37;;;12.47;;
3083;SDS011;1552;51.952;7.618;2024-03-06T14:38:15;29.07;;;14.07;;
3083;SDS011;1552;51.952;7.618;2024-03-06T14:40:42;24.00;;;13.27;;
3083;SDS011;1552;51.952;7.618;2024-03-06T14:43:09;25.03;;;14.27;;
3083;SDS011;1552;51.952;7.618;2024-03-06T14:45:35;25.70;;;14.90;;
3083;SDS011;1552;51.952;7.618;2024-03-06T14:48:06;22.50;;;13.17;;
3083;SDS011;1552;51.952;7.618;2024-03-06T14:50:35;25.47;;;13.60;;
3083;SDS011;1552;51.952;7.618;2024-03-06T14:53:01;25.17;;;13.10;;